Time;durP1;ratioP1;P1;durP2;ratioP2;P2;SDS_P1;SDS_P2;PMS_P1;PMS_P2;Temp;Humidity;BMP_temperature;BMP_pressure;BME280_temperature;BME280_humidity;BME280_pressure;Samples;Min_cycle;Max_cycle;Signal;HPM_P1;HPM_P2
2022/08/13 00:00:23;;;;;;;1.67;1.50;;;20.60;46.10;;;;;;948239;149;27343;-72
2022/08/13 00:02:47;;;;;;;1.57;1.47;;;20.50;46.10;;;;;;949077;149;27311;-73
2022/08/13 00:05:13;;;;;;;1.30;1.20;;;20.50;46.30;;;;;;948270;149;27317;-73
2022/08/13 00:07:40;;;;;;;1.57;1.47;;;20.50;46.40;;;;;;951949;149;27412;-73
2022/08/13 00:10:09;;;;;;;1.57;1.47;;;20.40;46.60;;;;;;950381;149;27372;-73
2022/08/13 00:15:20;;;;;;;1.40;1.30;;;20.30;47.00;;;;;;948783;149;27668;-72
2022/08/13 00:17:44;;;;;;;1.40;1.30;;;20.30;47.00;;;;;;949406;149;27414;-72
2022/08/13 00:20:11;;;;;;;1.30;1.20;;;20.20;47.20;;;;;;949050;149;27450;-73
2022/08/13 00:22:37;;;;;;;1.17;1.17;;;20.20;47.40;;;;;;950522;149;27432;-73
2022/08/13 00:25:04;;;;;;;1.85;1.65;;;20.20;47.50;;;;;;948815;149;28303;-73
2022/08/13 00:27:30;;;;;;;1.85;1.20;;;20.20;47.60;;;;;;947762;149;27375;-73
2022/08/13 00:29:57;;;;;;;2.02;1.30;;;20.20;47.70;;;;;;944272;150;27283;-73
2022/08/13 00:32:27;;;;;;;0.75;0.75;;;20.20;47.70;;;;;;943689;149;27314;-73
2022/08/13 00:34:51;;;;;;;0.95;0.95;;;20.20;47.80;;;;;;940848;150;27701;-73
2022/08/13 00:37:17;;;;;;;1.40;1.30;;;20.10;47.80;;;;;;943095;149;27981;-73
2022/08/13 00:39:43;;;;;;;1.45;1.35;;;20.10;47.90;;;;;;943804;149;27399;-73
2022/08/13 00:42:10;;;;;;;1.65;1.27;;;20.10;48.00;;;;;;943759;150;28576;-73
2022/08/13 00:44:38;;;;;;;2.55;1.52;;;20.10;48.20;;;;;;943161;149;27372;-73
2022/08/13 00:49:48;;;;;;;2.87;1.62;;;20.00;48.30;;;;;;946041;147;27421;-72
2022/08/13 00:52:15;;;;;;;1.50;1.40;;;20.00;48.30;;;;;;942949;149;27681;-73
2022/08/13 00:54:41;;;;;;;2.08;1.57;;;19.90;48.50;;;;;;942821;149;27296;-73
2022/08/13 00:57:08;;;;;;;1.32;1.22;;;19.80;48.60;;;;;;945596;150;27424;-73
2022/08/13 00:59:34;;;;;;;1.47;1.37;;;19.80;48.80;;;;;;943779;149;27265;-73
2022/08/13 01:02:01;;;;;;;1.22;1.12;;;19.70;49.00;;;;;;942798;148;27336;-74
2022/08/13 01:04:28;;;;;;;1.15;1.10;;;19.70;49.00;;;;;;943066;149;27381;-73
2022/08/13 01:06:57;;;;;;;1.30;1.25;;;19.70;49.30;;;;;;944509;149;27290;-73
2022/08/13 01:09:28;;;;;;;1.47;1.37;;;19.60;49.40;;;;;;942392;150;27324;-72
2022/08/13 01:11:50;;;;;;;2.30;1.55;;;19.60;49.40;;;;;;943314;150;27297;-73
2022/08/13 01:14:17;;;;;;;1.12;1.02;;;19.60;49.60;;;;;;942058;149;27353;-73
2022/08/13 01:16:43;;;;;;;1.87;1.45;;;19.50;49.60;;;;;;943233;150;27443;-73
2022/08/13 01:19:10;;;;;;;1.62;1.52;;;19.50;49.70;;;;;;943193;149;27436;-73
2022/08/13 01:21:39;;;;;;;1.17;1.10;;;19.40;49.80;;;;;;944245;150;27333;-72
2022/08/13 01:24:07;;;;;;;2.17;1.55;;;19.40;49.90;;;;;;942129;149;27362;-73
2022/08/13 01:26:33;;;;;;;1.50;1.40;;;19.40;50.10;;;;;;944944;149;27316;-73
2022/08/13 01:29:04;;;;;;;1.47;1.37;;;19.30;50.20;;;;;;944136;150;27489;-73
2022/08/13 01:31:26;;;;;;;1.60;1.47;;;19.20;50.20;;;;;;942239;149;27364;-73
2022/08/13 01:33:59;;;;;;;1.47;1.37;;;19.20;50.40;;;;;;945935;150;27639;-72
2022/08/13 01:36:23;;;;;;;1.70;1.52;;;19.20;50.40;;;;;;942716;150;27390;-73
2022/08/13 01:38:48;;;;;;;2.70;1.55;;;19.10;50.50;;;;;;942134;150;27419;-73
2022/08/13 01:41:15;;;;;;;2.52;1.52;;;19.10;50.60;;;;;;943352;149;27417;-73
2022/08/13 01:43:42;;;;;;;1.92;1.62;;;19.00;50.70;;;;;;944726;149;27479;-72
2022/08/13 01:46:08;;;;;;;1.57;1.47;;;19.00;50.80;;;;;;943874;149;27407;-73
2022/08/13 01:51:21;;;;;;;3.92;1.37;;;18.90;51.00;;;;;;942924;149;27413;-73
2022/08/13 01:53:46;;;;;;;1.55;1.45;;;18.80;50.90;;;;;;942545;150;27360;-73
2022/08/13 01:56:20;;;;;;;1.50;1.25;;;18.80;51.20;;;;;;945372;149;27647;-72
2022/08/13 01:58:39;;;;;;;1.42;1.20;;;18.70;51.30;;;;;;943586;149;27377;-72
2022/08/13 02:01:06;;;;;;;1.80;1.70;;;18.60;51.40;;;;;;945598;149;27308;-73
2022/08/13 02:03:32;;;;;;;1.67;1.57;;;18.60;51.50;;;;;;943620;148;27336;-72
2022/08/13 02:06:00;;;;;;;2.20;2.10;;;18.60;51.80;;;;;;943157;150;27348;-72
2022/08/13 02:08:26;;;;;;;3.12;1.95;;;18.50;51.80;;;;;;942348;149;27361;-73
2022/08/13 02:10:52;;;;;;;1.75;1.65;;;18.50;51.80;;;;;;942534;147;27429;-73
2022/08/13 02:13:19;;;;;;;3.33;1.93;;;18.50;51.80;;;;;;944108;149;27253;-72
2022/08/13 02:15:45;;;;;;;4.30;1.90;;;18.40;51.90;;;;;;942751;149;27428;-73
2022/08/13 02:18:17;;;;;;;1.80;1.70;;;18.40;51.90;;;;;;944069;149;27361;-73
2022/08/13 02:20:42;;;;;;;2.90;2.17;;;18.30;52.00;;;;;;943015;150;27361;-73
2022/08/13 02:23:08;;;;;;;2.77;1.90;;;18.30;52.10;;;;;;944178;149;28915;-72
2022/08/13 02:25:35;;;;;;;2.13;1.90;;;18.30;52.20;;;;;;943362;150;27721;-73
2022/08/13 02:28:01;;;;;;;1.92;1.80;;;18.20;52.20;;;;;;943961;150;27861;-73
2022/08/13 02:30:28;;;;;;;3.87;2.10;;;18.20;52.40;;;;;;950505;149;27327;-73
2022/08/13 02:32:54;;;;;;;1.97;1.60;;;18.20;52.50;;;;;;948781;149;27491;-74
2022/08/13 02:35:21;;;;;;;2.00;1.63;;;18.10;52.50;;;;;;947315;149;27412;-74
2022/08/13 02:37:48;;;;;;;1.65;1.55;;;18.10;52.60;;;;;;948860;149;27407;-74
2022/08/13 02:42:59;;;;;;;2.02;1.82;;;18.00;52.70;;;;;;951000;149;27358;-74
2022/08/13 02:45:25;;;;;;;1.80;1.70;;;18.00;52.70;;;;;;947653;149;27477;-74
2022/08/13 02:47:52;;;;;;;2.67;1.82;;;18.00;53.30;;;;;;952211;149;27348;-74
2022/08/13 02:50:20;;;;;;;1.77;1.67;;;17.90;53.00;;;;;;949575;149;27426;-74
2022/08/13 02:52:45;;;;;;;1.77;1.67;;;17.90;53.10;;;;;;947599;149;27382;-74
2022/08/13 02:55:12;;;;;;;2.00;1.90;;;17.90;53.20;;;;;;950528;149;27269;-74
2022/08/13 02:57:38;;;;;;;1.70;1.60;;;17.90;53.30;;;;;;950821;149;27312;-74
2022/08/13 03:00:05;;;;;;;3.55;1.80;;;17.90;53.40;;;;;;950356;149;27445;-74
2022/08/13 03:02:32;;;;;;;4.22;2.00;;;17.80;53.50;;;;;;948461;149;27322;-74
2022/08/13 03:04:59;;;;;;;2.20;1.87;;;17.80;53.70;;;;;;950186;149;27394;-74
2022/08/13 03:07:26;;;;;;;2.13;1.93;;;17.80;53.80;;;;;;949976;149;27313;-74
2022/08/13 03:09:51;;;;;;;2.22;1.98;;;17.70;53.80;;;;;;949823;149;27288;-74
2022/08/13 03:12:19;;;;;;;1.83;1.73;;;17.70;53.80;;;;;;948376;149;27469;-74
2022/08/13 03:14:45;;;;;;;2.55;2.05;;;17.70;53.90;;;;;;948611;149;27339;-74
2022/08/13 03:17:11;;;;;;;2.00;1.73;;;17.60;53.90;;;;;;949844;149;27340;-74
2022/08/13 03:19:38;;;;;;;2.67;1.90;;;17.60;54.00;;;;;;950004;149;27333;-74
2022/08/13 03:22:06;;;;;;;2.33;1.93;;;17.60;54.10;;;;;;947053;149;27341;-74
2022/08/13 03:24:31;;;;;;;2.40;1.95;;;17.50;54.10;;;;;;949117;149;27307;-74
2022/08/13 03:26:57;;;;;;;2.50;2.30;;;17.50;54.30;;;;;;948897;149;27368;-74
2022/08/13 03:29:24;;;;;;;3.03;2.60;;;17.50;54.40;;;;;;947885;149;27413;-73
2022/08/13 03:31:51;;;;;;;2.27;1.57;;;17.40;54.50;;;;;;943187;149;27412;-74
2022/08/13 03:34:20;;;;;;;2.87;2.40;;;17.40;54.60;;;;;;944078;147;27326;-74
2022/08/13 03:36:44;;;;;;;2.47;2.20;;;17.40;54.60;;;;;;943720;150;27361;-74
2022/08/13 03:39:10;;;;;;;3.17;1.97;;;17.30;54.70;;;;;;943144;149;27502;-74
2022/08/13 03:41:37;;;;;;;3.65;2.02;;;17.30;54.80;;;;;;942870;149;27819;-74
2022/08/13 03:44:05;;;;;;;2.23;1.97;;;17.30;54.80;;;;;;944320;149;27963;-74
2022/08/13 03:46:31;;;;;;;1.80;1.70;;;17.20;55.00;;;;;;943233;149;27345;-74
2022/08/13 03:48:57;;;;;;;2.47;1.77;;;17.20;55.00;;;;;;944049;149;27345;-74
2022/08/13 03:51:23;;;;;;;1.70;1.60;;;17.10;55.00;;;;;;942983;150;27370;-74
2022/08/13 03:53:50;;;;;;;1.80;1.60;;;17.10;55.20;;;;;;944633;150;27454;-74
2022/08/13 03:56:18;;;;;;;1.93;1.60;;;17.10;55.20;;;;;;941771;150;27336;-74
2022/08/13 03:58:44;;;;;;;1.50;1.40;;;17.10;55.30;;;;;;943132;149;27709;-74
2022/08/13 04:01:10;;;;;;;1.53;1.43;;;17.10;55.30;;;;;;942464;149;27390;-74
2022/08/13 04:03:41;;;;;;;1.70;1.57;;;17.00;55.40;;;;;;942833;150;27341;-75
2022/08/13 04:06:15;;;;;;;1.80;1.70;;;17.00;55.40;;;;;;944986;149;27400;-74
2022/08/13 04:08:38;;;;;;;1.70;1.60;;;17.00;55.50;;;;;;942547;150;27342;-74
2022/08/13 04:11:08;;;;;;;2.07;1.60;;;16.90;55.50;;;;;;944254;150;27338;-74
2022/08/13 04:13:36;;;;;;;1.30;1.20;;;16.90;56.30;;;;;;942065;150;27333;-74
2022/08/13 04:16:00;;;;;;;1.80;1.70;;;16.90;55.80;;;;;;943391;150;27332;-74
2022/08/13 04:18:27;;;;;;;1.93;1.20;;;16.80;55.90;;;;;;944114;149;28283;-74
2022/08/13 04:20:55;;;;;;;1.80;1.30;;;16.80;56.00;;;;;;945726;147;27326;-74
2022/08/13 04:23:20;;;;;;;3.10;1.90;;;16.80;56.10;;;;;;943637;150;27347;-74
2022/08/13 04:25:47;;;;;;;1.63;1.30;;;16.80;56.20;;;;;;944373;149;27281;-73
2022/08/13 04:28:13;;;;;;;1.53;1.43;;;16.70;56.30;;;;;;942241;149;27373;-74
2022/08/13 04:30:41;;;;;;;1.27;1.17;;;16.70;56.30;;;;;;942266;148;27422;-74
2022/08/13 04:33:09;;;;;;;1.50;1.33;;;16.70;56.40;;;;;;944177;150;27421;-74
2022/08/13 04:35:33;;;;;;;1.57;1.40;;;16.60;56.50;;;;;;942907;150;27312;-74
2022/08/13 04:37:59;;;;;;;1.53;1.43;;;16.60;56.60;;;;;;943535;150;27821;-74
2022/08/13 04:40:26;;;;;;;1.30;1.20;;;16.60;56.70;;;;;;942180;149;27409;-74
2022/08/13 04:42:53;;;;;;;1.80;1.70;;;16.60;56.70;;;;;;942127;150;27751;-74
2022/08/13 04:45:22;;;;;;;1.60;1.50;;;16.60;56.90;;;;;;943776;150;27324;-74
2022/08/13 04:47:48;;;;;;;1.67;1.57;;;16.70;57.00;;;;;;943990;147;27344;-74
2022/08/13 04:50:15;;;;;;;1.80;1.60;;;16.60;57.10;;;;;;943033;150;27360;-74
2022/08/13 04:52:42;;;;;;;1.53;1.43;;;16.70;57.20;;;;;;944362;150;27444;-74
2022/08/13 04:55:11;;;;;;;1.70;1.60;;;16.70;57.20;;;;;;943395;149;27361;-74
2022/08/13 04:57:35;;;;;;;1.53;1.43;;;16.80;57.40;;;;;;943133;150;27337;-74
2022/08/13 05:00:04;;;;;;;1.43;1.33;;;16.80;57.50;;;;;;943383;149;27302;-74
2022/08/13 05:02:28;;;;;;;1.97;1.80;;;16.90;57.60;;;;;;943179;149;29048;-74
2022/08/13 05:04:55;;;;;;;2.17;1.90;;;17.00;57.70;;;;;;945460;149;27373;-74
2022/08/13 05:07:21;;;;;;;1.70;1.60;;;17.20;58.30;;;;;;944086;149;27335;-74
2022/08/13 05:09:48;;;;;;;1.67;1.50;;;17.50;58.90;;;;;;943668;149;27328;-74
2022/08/13 05:12:14;;;;;;;2.90;1.77;;;17.90;59.40;;;;;;945410;150;27281;-74
2022/08/13 05:14:41;;;;;;;1.32;1.32;;;18.40;59.80;;;;;;943712;150;27322;-74
2022/08/13 05:17:08;;;;;;;1.47;1.37;;;19.10;59.90;;;;;;945806;150;27445;-74
2022/08/13 05:19:34;;;;;;;1.67;1.57;;;19.80;59.70;;;;;;943496;150;27372;-74
2022/08/13 05:22:01;;;;;;;1.60;1.50;;;20.60;59.20;;;;;;943305;150;27345;-74
2022/08/13 05:24:27;;;;;;;1.70;1.60;;;21.40;58.60;;;;;;943395;149;27307;-74
2022/08/13 05:26:54;;;;;;;1.92;1.35;;;22.30;57.80;;;;;;943295;149;27323;-75
2022/08/13 05:29:20;;;;;;;1.40;1.30;;;23.20;56.80;;;;;;943040;150;27814;-74
2022/08/13 05:31:49;;;;;;;1.40;1.30;;;24.00;54.90;;;;;;942494;149;27365;-75
2022/08/13 05:34:14;;;;;;;1.52;1.42;;;24.90;54.50;;;;;;943786;149;28658;-74
2022/08/13 05:36:42;;;;;;;2.45;1.40;;;25.60;53.40;;;;;;943805;148;27257;-75
2022/08/13 05:39:07;;;;;;;1.30;1.25;;;26.40;52.50;;;;;;943402;147;27443;-75
2022/08/13 05:41:33;;;;;;;1.47;1.20;;;27.20;51.60;;;;;;942885;150;27363;-75
2022/08/13 05:44:00;;;;;;;1.72;1.30;;;27.90;50.70;;;;;;944207;149;27427;-73
2022/08/13 05:46:27;;;;;;;0.90;0.90;;;28.60;49.80;;;;;;944621;149;27361;-74
2022/08/13 05:48:56;;;;;;;1.20;1.10;;;29.30;48.90;;;;;;945986;149;27317;-73
2022/08/13 05:51:25;;;;;;;1.17;1.05;;;30.00;48.00;;;;;;945111;149;27440;-73
2022/08/13 05:53:54;;;;;;;1.62;1.12;;;30.60;47.00;;;;;;943972;149;27353;-76
2022/08/13 05:56:19;;;;;;;0.90;0.78;;;31.20;46.10;;;;;;943792;149;27432;-75
2022/08/13 05:58:45;;;;;;;1.15;1.05;;;31.60;45.20;;;;;;945518;149;27341;-76
2022/08/13 06:03:57;;;;;;;3.37;1.27;;;32.60;44.00;;;;;;943160;147;27313;-76
2022/08/13 06:06:23;;;;;;;0.62;0.62;;;33.10;43.50;;;;;;944531;147;27348;-75
2022/08/13 06:08:49;;;;;;;1.15;0.95;;;33.60;43.00;;;;;;943550;149;27429;-76
2022/08/13 06:11:17;;;;;;;1.17;1.17;;;34.10;42.50;;;;;;943254;150;27343;-75
2022/08/13 06:13:43;;;;;;;1.00;1.00;;;34.50;41.90;;;;;;942822;149;27334;-76
2022/08/13 06:16:10;;;;;;;1.25;1.20;;;35.10;41.20;;;;;;943525;149;26253;-76
2022/08/13 06:18:36;;;;;;;1.07;1.07;;;35.50;40.40;;;;;;944523;147;27333;-76
2022/08/13 06:21:05;;;;;;;1.00;1.00;;;36.00;39.90;;;;;;942302;149;26345;-76
2022/08/13 06:23:32;;;;;;;0.85;0.80;;;36.50;39.70;;;;;;944095;150;26350;-76
2022/08/13 06:25:58;;;;;;;1.10;1.00;;;37.00;39.00;;;;;;943547;150;26153;-76
2022/08/13 06:28:28;;;;;;;0.72;0.72;;;37.50;38.20;;;;;;943589;150;26209;-76
2022/08/13 06:30:54;;;;;;;0.80;0.80;;;38.00;37.50;;;;;;944714;149;26206;-76
2022/08/13 06:33:21;;;;;;;0.90;0.80;;;38.40;36.60;;;;;;950082;149;27456;-76
2022/08/13 06:35:49;;;;;;;0.78;0.78;;;38.70;35.90;;;;;;950798;149;27590;-76
2022/08/13 06:38:14;;;;;;;1.12;1.05;;;39.10;35.20;;;;;;949437;149;26305;-76
2022/08/13 06:40:41;;;;;;;0.82;0.80;;;39.40;35.50;;;;;;949892;149;26331;-76
2022/08/13 06:43:07;;;;;;;2.67;0.88;;;39.60;34.30;;;;;;949885;149;27358;-76
2022/08/13 06:45:35;;;;;;;1.15;0.95;;;40.00;34.10;;;;;;950647;146;26230;-76
2022/08/13 06:48:03;;;;;;;2.35;0.95;;;40.30;34.20;;;;;;948585;149;27443;-76
2022/08/13 06:50:34;;;;;;;1.80;0.98;;;40.50;33.00;;;;;;949340;149;26235;-76
2022/08/13 06:52:56;;;;;;;4.62;0.90;;;40.90;32.30;;;;;;948013;149;26827;-76
2022/08/13 06:55:23;;;;;;;4.83;1.25;;;41.20;31.70;;;;;;950086;149;27288;-76
2022/08/13 06:57:50;;;;;;;1.75;0.70;;;41.50;31.10;;;;;;948546;149;26540;-76
2022/08/13 07:00:16;;;;;;;0.75;0.70;;;41.60;30.60;;;;;;949641;149;26360;-76
2022/08/13 07:02:44;;;;;;;3.42;1.00;;;41.80;30.30;;;;;;949208;149;26301;-76
2022/08/13 07:05:10;;;;;;;1.02;0.70;;;42.00;30.10;;;;;;950713;149;26225;-77
2022/08/13 07:07:37;;;;;;;1.30;1.20;;;42.20;30.00;;;;;;951134;149;27342;-77
2022/08/13 07:10:03;;;;;;;1.72;0.80;;;42.30;29.70;;;;;;948106;149;26257;-77
2022/08/13 07:12:30;;;;;;;1.62;1.00;;;42.50;29.50;;;;;;950270;149;26390;-77
2022/08/13 07:14:56;;;;;;;0.80;0.80;;;42.60;29.20;;;;;;948351;149;26343;-77
2022/08/13 07:17:23;;;;;;;0.85;0.85;;;42.80;28.90;;;;;;949113;149;26337;-76
2022/08/13 07:19:49;;;;;;;0.90;0.80;;;43.10;28.80;;;;;;950367;149;26264;-77
2022/08/13 07:22:16;;;;;;;2.52;0.90;;;43.30;28.70;;;;;;949801;149;26162;-76
2022/08/13 07:24:49;;;;;;;0.90;0.65;;;43.50;28.20;;;;;;949788;149;26228;-77
2022/08/13 07:27:09;;;;;;;1.10;1.10;;;43.70;28.10;;;;;;948818;149;26377;-77
2022/08/13 07:29:35;;;;;;;2.37;0.85;;;43.90;27.80;;;;;;949903;146;26266;-77
2022/08/13 07:32:06;;;;;;;1.05;0.70;;;44.10;27.80;;;;;;949657;149;26374;-77
2022/08/13 07:34:32;;;;;;;0.68;0.68;;;44.40;27.60;;;;;;943558;149;26232;-77
2022/08/13 07:36:59;;;;;;;1.12;1.00;;;44.70;27.30;;;;;;943943;150;26201;-77
2022/08/13 07:39:25;;;;;;;0.75;0.75;;;45.00;27.10;;;;;;942854;149;26291;-77
2022/08/13 07:41:51;;;;;;;1.17;0.90;;;45.30;26.80;;;;;;944056;149;26304;-77
2022/08/13 07:44:26;;;;;;;1.20;1.10;;;45.60;26.60;;;;;;943044;149;26249;-77
2022/08/13 07:46:53;;;;;;;0.80;0.80;;;45.90;26.20;;;;;;943265;150;26284;-77
2022/08/13 07:49:20;;;;;;;3.20;0.80;;;46.20;26.00;;;;;;943139;149;26240;-77
2022/08/13 07:51:46;;;;;;;1.65;0.98;;;46.40;25.80;;;;;;942943;147;26293;-77
2022/08/13 07:54:13;;;;;;;1.35;0.70;;;46.60;25.50;;;;;;943866;149;26249;-77
2022/08/13 07:56:39;;;;;;;1.82;0.65;;;46.80;25.50;;;;;;944132;149;26253;-78
2022/08/13 07:59:12;;;;;;;0.90;0.90;;;47.00;25.30;;;;;;942907;148;26253;-77
2022/08/13 08:01:53;;;;;;;1.30;0.90;;;47.20;25.00;;;;;;944196;150;26358;-77
2022/08/13 08:04:20;;;;;;;1.42;0.90;;;47.50;24.70;;;;;;945039;149;26366;-77
2022/08/13 08:06:47;;;;;;;0.70;0.70;;;47.70;24.50;;;;;;943550;150;26251;-77
2022/08/13 08:09:19;;;;;;;1.57;0.85;;;47.80;24.40;;;;;;942416;149;26299;-77
2022/08/13 08:14:31;;;;;;;0.72;0.72;;;48.10;24.10;;;;;;944420;149;26346;-77
2022/08/13 08:17:00;;;;;;;0.60;0.60;;;48.40;24.00;;;;;;943050;149;26237;-77
2022/08/13 08:19:27;;;;;;;0.82;0.82;;;48.60;23.80;;;;;;943630;149;26257;-77
2022/08/13 08:21:56;;;;;;;1.05;0.65;;;48.80;23.70;;;;;;943004;149;26209;-77
2022/08/13 08:24:20;;;;;;;0.80;0.80;;;49.10;23.50;;;;;;940810;150;26628;-77
2022/08/13 08:26:47;;;;;;;2.42;0.78;;;49.40;23.30;;;;;;943509;149;26220;-77
2022/08/13 08:29:13;;;;;;;0.80;0.60;;;49.70;23.10;;;;;;943369;147;26340;-78
2022/08/13 08:31:40;;;;;;;1.07;0.68;;;49.90;22.80;;;;;;942997;150;26245;-78
2022/08/13 08:34:07;;;;;;;0.70;0.70;;;50.20;22.50;;;;;;945873;149;27012;-78
2022/08/13 08:36:33;;;;;;;1.30;0.85;;;50.30;22.40;;;;;;945053;147;26256;-78
2022/08/13 08:44:32;;;;;;;1.10;0.55;;;50.60;22.10;;;;;;943600;149;26243;-76
2022/08/13 08:46:58;;;;;;;0.57;0.50;;;50.80;22.00;;;;;;944496;149;26321;-76
2022/08/13 08:49:22;;;;;;;1.00;0.80;;;50.90;21.80;;;;;;943184;149;26253;-76
2022/08/13 08:51:51;;;;;;;0.75;0.60;;;51.10;21.60;;;;;;944381;150;26257;-76
2022/08/13 08:54:18;;;;;;;0.70;0.70;;;51.10;21.00;;;;;;943831;149;26258;-76
2022/08/13 08:56:47;;;;;;;0.60;0.60;;;51.20;21.50;;;;;;943975;147;26280;-77
2022/08/13 08:59:13;;;;;;;0.60;0.60;;;51.30;21.40;;;;;;945412;150;26216;-78
2022/08/13 09:01:40;;;;;;;1.75;0.90;;;51.30;21.30;;;;;;943384;150;26303;-78
2022/08/13 09:04:07;;;;;;;0.53;0.53;;;51.50;21.30;;;;;;941679;149;26158;-78
2022/08/13 09:06:33;;;;;;;0.68;0.60;;;51.60;21.10;;;;;;943822;147;26261;-78
2022/08/13 09:09:00;;;;;;;0.80;0.70;;;51.70;21.00;;;;;;943906;149;26373;-78
2022/08/13 09:11:28;;;;;;;0.72;0.53;;;51.80;20.90;;;;;;942835;149;26181;-78
2022/08/13 09:13:53;;;;;;;0.75;0.70;;;51.90;20.80;;;;;;942386;150;26189;-78
2022/08/13 09:16:19;;;;;;;0.80;0.53;;;51.90;20.50;;;;;;944297;150;26228;-78
2022/08/13 09:18:46;;;;;;;0.72;0.45;;;51.90;20.20;;;;;;941952;149;26229;-78
2022/08/13 09:21:13;;;;;;;1.30;0.62;;;51.70;20.20;;;;;;943695;149;26300;-78
2022/08/13 09:23:44;;;;;;;2.12;0.55;;;51.50;20.10;;;;;;942931;150;26327;-78
2022/08/13 09:26:10;;;;;;;0.72;0.50;;;51.50;20.70;;;;;;942455;150;26319;-78
2022/08/13 09:28:35;;;;;;;1.32;0.60;;;51.20;20.20;;;;;;945157;149;26237;-78
2022/08/13 09:31:02;;;;;;;0.95;0.60;;;51.20;20.30;;;;;;943245;149;26257;-78
2022/08/13 09:33:30;;;;;;;0.60;0.60;;;51.20;20.30;;;;;;942700;149;26408;-78
2022/08/13 09:35:55;;;;;;;0.98;0.60;;;51.10;20.40;;;;;;943307;150;26257;-78
2022/08/13 09:38:22;;;;;;;0.70;0.70;;;51.10;20.20;;;;;;942801;147;26230;-78
2022/08/13 09:40:49;;;;;;;0.62;0.62;;;51.00;20.60;;;;;;943511;149;26586;-78
2022/08/13 09:43:15;;;;;;;1.40;0.75;;;50.90;20.10;;;;;;944030;149;26813;-78
2022/08/13 09:45:42;;;;;;;0.57;0.50;;;50.80;19.90;;;;;;943444;150;26261;-78
2022/08/13 09:48:08;;;;;;;0.55;0.42;;;50.60;19.90;;;;;;943895;150;26659;-78
2022/08/13 09:50:35;;;;;;;0.80;0.80;;;50.30;20.00;;;;;;941566;149;26213;-78
2022/08/13 09:53:01;;;;;;;1.05;0.80;;;50.10;20.00;;;;;;942951;149;26341;-78
2022/08/13 09:55:28;;;;;;;0.70;0.50;;;49.90;20.00;;;;;;944139;149;26334;-78
2022/08/13 09:58:00;;;;;;;0.55;0.55;;;49.60;19.90;;;;;;942512;149;26257;-78
2022/08/13 10:00:27;;;;;;;0.60;0.60;;;49.30;19.90;;;;;;941708;150;26287;-78
2022/08/13 10:02:59;;;;;;;0.68;0.68;;;49.00;19.90;;;;;;945396;150;26209;-78
2022/08/13 10:05:20;;;;;;;0.70;0.70;;;48.60;20.00;;;;;;943797;150;26229;-78
2022/08/13 10:07:46;;;;;;;1.72;0.70;;;48.20;19.90;;;;;;946263;149;26339;-78
2022/08/13 10:10:13;;;;;;;1.02;0.90;;;47.80;19.90;;;;;;945908;150;26244;-78
2022/08/13 10:12:40;;;;;;;0.57;0.57;;;47.20;19.90;;;;;;944665;150;26369;-78
2022/08/13 10:15:06;;;;;;;1.95;0.90;;;46.70;20.00;;;;;;943796;150;26212;-77
2022/08/13 10:17:55;;;;;;;1.12;0.80;;;46.10;20.00;;;;;;944945;147;26271;-77
2022/08/13 10:20:21;;;;;;;1.05;1.05;;;45.40;20.10;;;;;;942671;149;26248;-77
2022/08/13 10:22:47;;;;;;;0.62;0.62;;;44.60;20.20;;;;;;940412;149;26257;-77
2022/08/13 10:25:14;;;;;;;4.85;0.95;;;43.90;20.50;;;;;;942944;149;26288;-77
2022/08/13 10:27:40;;;;;;;0.98;0.98;;;43.10;20.70;;;;;;944178;149;27387;-77
2022/08/13 10:30:07;;;;;;;1.10;0.90;;;42.20;21.00;;;;;;943912;149;26295;-77
2022/08/13 10:32:33;;;;;;;1.02;1.00;;;41.50;21.50;;;;;;943945;148;26257;-76
2022/08/13 10:35:03;;;;;;;2.22;0.85;;;40.80;21.70;;;;;;947423;149;27370;-77
2022/08/13 10:37:29;;;;;;;0.82;0.82;;;40.20;22.10;;;;;;950142;149;27455;-77
2022/08/13 10:39:56;;;;;;;1.12;1.00;;;39.60;22.30;;;;;;948769;149;26184;-77
2022/08/13 10:42:23;;;;;;;2.90;1.20;;;39.20;22.70;;;;;;949342;146;26272;-77
2022/08/13 10:44:52;;;;;;;0.90;0.90;;;38.90;22.90;;;;;;951591;149;27331;-77
2022/08/13 10:47:18;;;;;;;0.82;0.75;;;38.70;23.30;;;;;;949873;149;27406;-77
2022/08/13 10:49:49;;;;;;;0.80;0.80;;;38.50;23.20;;;;;;948004;149;27874;-77
2022/08/13 10:52:11;;;;;;;0.85;0.85;;;38.40;23.30;;;;;;950266;149;26320;-77
2022/08/13 10:54:38;;;;;;;2.47;1.00;;;38.30;23.50;;;;;;948091;149;27316;-77
2022/08/13 10:57:07;;;;;;;0.90;0.90;;;38.10;23.40;;;;;;950810;149;28102;-77
2022/08/13 10:59:34;;;;;;;0.80;0.80;;;38.00;23.50;;;;;;951813;149;27347;-77
2022/08/13 11:02:00;;;;;;;4.10;1.05;;;37.70;23.50;;;;;;949555;149;27458;-77
2022/08/13 11:04:28;;;;;;;1.47;1.07;;;37.60;23.70;;;;;;949925;149;27488;-77
2022/08/13 11:06:54;;;;;;;1.05;0.80;;;37.30;23.90;;;;;;950570;149;27322;-77
2022/08/13 11:09:20;;;;;;;1.40;1.00;;;37.20;24.00;;;;;;949823;148;27362;-77
2022/08/13 11:11:46;;;;;;;3.02;1.00;;;37.10;24.10;;;;;;950929;146;27349;-77
2022/08/13 11:14:16;;;;;;;1.25;1.00;;;37.00;24.20;;;;;;950481;146;27361;-77
2022/08/13 11:19:15;;;;;;;0.88;0.88;;;36.70;24.40;;;;;;950144;149;28040;-78
2022/08/13 11:21:33;;;;;;;0.80;0.80;;;36.60;24.40;;;;;;948290;146;27276;-78
2022/08/13 11:23:59;;;;;;;1.10;1.10;;;36.60;24.70;;;;;;949285;149;27373;-77
2022/08/13 11:26:26;;;;;;;0.98;0.98;;;36.60;24.90;;;;;;950667;149;27365;-76
2022/08/13 11:28:53;;;;;;;1.62;1.10;;;36.60;24.90;;;;;;951974;149;27415;-78
2022/08/13 11:31:19;;;;;;;1.10;1.10;;;36.60;25.40;;;;;;949009;149;27375;-77
2022/08/13 11:33:46;;;;;;;1.25;1.07;;;36.50;25.00;;;;;;948770;149;27336;-77
2022/08/13 11:36:12;;;;;;;0.90;0.90;;;36.40;25.10;;;;;;946427;149;27468;-77
2022/08/13 11:38:39;;;;;;;0.90;0.90;;;36.20;25.10;;;;;;942888;149;27340;-77
2022/08/13 11:41:07;;;;;;;1.10;1.10;;;36.10;25.20;;;;;;943843;150;27374;-76
2022/08/13 11:43:32;;;;;;;1.35;1.17;;;35.90;25.10;;;;;;945810;149;27369;-76
2022/08/13 11:45:59;;;;;;;1.27;1.10;;;35.80;25.20;;;;;;943473;149;27339;-77
2022/08/13 11:48:25;;;;;;;0.88;0.88;;;35.60;25.30;;;;;;943454;149;27492;-76
2022/08/13 11:50:52;;;;;;;1.27;1.20;;;35.50;25.40;;;;;;944487;150;27340;-77
2022/08/13 11:53:18;;;;;;;2.87;1.30;;;35.30;25.60;;;;;;945131;149;27407;-77
2022/08/13 11:55:45;;;;;;;0.90;0.90;;;35.20;25.80;;;;;;943630;150;27295;-76
2022/08/13 11:58:12;;;;;;;1.00;1.00;;;35.10;25.80;;;;;;943428;150;27439;-76
2022/08/13 12:00:38;;;;;;;0.75;0.72;;;35.00;25.90;;;;;;943397;149;27755;-77
2022/08/13 12:03:05;;;;;;;1.32;1.22;;;34.90;26.00;;;;;;945093;149;27333;-77
2022/08/13 12:05:31;;;;;;;0.90;0.90;;;34.80;26.00;;;;;;947241;147;27299;-77
2022/08/13 12:07:58;;;;;;;1.02;1.02;;;34.80;26.00;;;;;;945099;148;27311;-76
2022/08/13 12:10:44;;;;;;;1.30;1.20;;;34.70;26.00;;;;;;945511;149;27374;-76
2022/08/13 12:13:11;;;;;;;1.10;1.10;;;34.70;26.00;;;;;;945378;151;27308;-77
2022/08/13 12:15:37;;;;;;;1.37;1.00;;;34.70;26.10;;;;;;945660;151;27406;-76
2022/08/13 12:18:04;;;;;;;0.95;0.95;;;34.60;26.00;;;;;;945108;149;27300;-76
2022/08/13 12:20:31;;;;;;;1.35;1.20;;;34.60;26.10;;;;;;945494;149;27360;-76
2022/08/13 12:22:57;;;;;;;1.20;1.10;;;34.60;26.20;;;;;;944852;150;27342;-76
2022/08/13 12:25:24;;;;;;;1.07;1.07;;;34.50;26.10;;;;;;944759;150;27296;-76
2022/08/13 12:27:50;;;;;;;1.32;1.00;;;34.40;26.20;;;;;;945489;150;27311;-76
2022/08/13 12:30:17;;;;;;;1.10;1.10;;;34.20;26.20;;;;;;943690;149;27280;-77
2022/08/13 12:32:44;;;;;;;0.93;0.93;;;34.10;26.30;;;;;;945798;149;27358;-76
2022/08/13 12:35:10;;;;;;;1.30;1.20;;;33.90;26.40;;;;;;962455;148;27327;-76
2022/08/13 12:37:37;;;;;;;1.10;0.95;;;33.80;26.40;;;;;;962499;149;27280;-77
2022/08/13 12:40:03;;;;;;;1.12;1.10;;;33.70;26.60;;;;;;967562;145;27346;-76
2022/08/13 12:42:30;;;;;;;1.00;1.00;;;33.60;26.70;;;;;;979077;146;27330;-76
2022/08/13 12:44:57;;;;;;;1.05;1.00;;;33.60;26.80;;;;;;965398;145;27338;-76
2022/08/13 12:47:23;;;;;;;0.90;0.90;;;33.60;27.00;;;;;;980509;145;27305;-76
2022/08/13 12:49:50;;;;;;;2.62;0.93;;;33.60;27.00;;;;;;965433;146;28219;-77
2022/08/13 12:52:16;;;;;;;4.58;1.32;;;33.60;27.10;;;;;;979397;146;27306;-76
2022/08/13 12:54:43;;;;;;;1.00;1.00;;;33.60;27.00;;;;;;980545;145;27342;-76
2022/08/13 12:57:10;;;;;;;1.20;1.10;;;33.70;26.90;;;;;;979624;145;27893;-78
2022/08/13 12:59:36;;;;;;;1.00;1.00;;;33.70;26.90;;;;;;978785;144;27381;-77
2022/08/13 13:02:03;;;;;;;1.20;1.10;;;33.70;26.90;;;;;;961612;146;27318;-76
2022/08/13 13:04:29;;;;;;;1.40;1.30;;;33.80;26.80;;;;;;979346;145;27675;-77
2022/08/13 13:06:56;;;;;;;1.00;1.00;;;33.80;26.80;;;;;;966278;146;27242;-77
2022/08/13 13:09:22;;;;;;;1.10;1.10;;;33.90;26.80;;;;;;979779;144;27379;-78